Time;durP1;ratioP1;P1;durP2;ratioP2;P2;SDS_P1;SDS_P2;PMS_P1;PMS_P2;Temp;Humidity;BMP_temperature;BMP_pressure;BME280_temperature;BME280_humidity;BME280_pressure;Samples;Min_cycle;Max_cycle;Signal;HPM_P1;HPM_P2
2023/01/10 00:01:56;;;;;;;154.18;69.90;;;;;;;3.97;93.66;99088.22;5099542;28;20028;-70
2023/01/10 00:04:22;;;;;;;160.13;71.40;;;;;;;3.98;94.06;99070.50;5112479;28;20112;-71
2023/01/10 00:06:48;;;;;;;172.98;71.85;;;;;;;4.09;93.27;99073.94;5111566;28;20555;-71
2023/01/10 00:09:13;;;;;;;159.32;69.65;;;;;;;4.19;92.45;99061.88;5111786;28;20055;-70
2023/01/10 00:14:25;;;;;;;160.73;68.32;;;;;;;3.89;94.60;99048.22;5112233;28;20521;-71
2023/01/10 00:16:50;;;;;;;163.88;70.10;;;;;;;3.97;93.62;99060.53;5110525;28;20035;-71
2023/01/10 00:19:15;;;;;;;156.85;73.03;;;;;;;3.87;94.30;99044.94;5112119;28;20027;-71
2023/01/10 00:21:41;;;;;;;168.57;72.00;;;;;;;3.84;95.43;99030.88;5111922;28;20024;-71
2023/01/10 00:24:16;;;;;;;161.45;71.65;;;;;;;3.89;95.42;99041.88;5112017;28;20024;-71
2023/01/10 00:26:44;;;;;;;164.38;68.85;;;;;;;3.20;98.60;99045.91;5109783;28;20034;-71
2023/01/10 00:29:10;;;;;;;167.73;71.05;;;;;;;3.19;99.14;99047.00;5110662;28;20430;-71
2023/01/10 00:31:35;;;;;;;171.65;73.40;;;;;;;3.33;99.20;99063.69;5111008;28;20028;-71
2023/01/10 00:34:01;;;;;;;179.80;73.78;;;;;;;3.30;99.44;99058.75;5110558;28;20024;-71
2023/01/10 00:36:26;;;;;;;183.23;74.90;;;;;;;2.93;100.00;99050.91;5111059;28;20039;-71
2023/01/10 00:38:52;;;;;;;181.07;73.95;;;;;;;3.26;100.00;99049.38;5111725;28;20035;-71
2023/01/10 00:44:02;;;;;;;200.10;74.80;;;;;;;3.08;100.00;99051.84;5111733;28;20031;-71
2023/01/10 00:46:27;;;;;;;184.02;79.03;;;;;;;2.86;100.00;99039.38;5109215;28;20028;-71
2023/01/10 00:48:53;;;;;;;196.88;79.25;;;;;;;2.73;100.00;99045.59;5111744;28;20028;-71
2023/01/10 00:51:19;;;;;;;206.88;80.72;;;;;;;2.87;100.00;99052.06;5111713;28;20406;-70
2023/01/10 00:53:45;;;;;;;209.48;83.15;;;;;;;2.74;100.00;99053.59;5111768;28;20023;-71
2023/01/10 00:56:10;;;;;;;220.40;84.60;;;;;;;2.93;100.00;99050.06;5100837;28;20047;-71
2023/01/10 00:58:36;;;;;;;182.68;82.85;;;;;;;2.88;100.00;99039.91;5102240;28;20046;-71
2023/01/10 01:01:01;;;;;;;196.55;81.55;;;;;;;2.77;100.00;99035.59;5109581;28;20024;-71
2023/01/10 01:03:27;;;;;;;195.05;83.75;;;;;;;2.58;100.00;99021.72;5110120;28;20019;-71
2023/01/10 01:05:52;;;;;;;215.65;84.47;;;;;;;2.73;100.00;99013.28;5107441;28;20027;-70
2023/01/10 01:08:18;;;;;;;206.05;83.85;;;;;;;3.08;100.00;99015.91;5110107;28;20047;-71
2023/01/10 01:10:44;;;;;;;204.30;78.65;;;;;;;2.92;100.00;99032.69;5111810;28;20066;-71
2023/01/10 01:13:19;;;;;;;194.40;80.38;;;;;;;2.88;100.00;99031.59;5110470;28;20019;-71
2023/01/10 01:15:46;;;;;;;200.15;78.00;;;;;;;3.23;100.00;99032.28;5109739;28;20028;-71
2023/01/10 01:18:13;;;;;;;180.60;76.60;;;;;;;3.19;100.00;99022.09;5110695;28;20035;-71
2023/01/10 01:20:40;;;;;;;204.60;77.22;;;;;;;2.95;100.00;99020.19;5111646;28;20028;-71
2023/01/10 01:23:06;;;;;;;222.68;75.32;;;;;;;3.12;100.00;99025.25;5113325;28;20070;-70
2023/01/10 01:25:31;;;;;;;230.57;81.60;;;;;;;2.84;100.00;99008.47;5115052;28;20051;-71
2023/01/10 01:27:57;;;;;;;224.55;79.95;;;;;;;2.88;100.00;99001.22;5114050;28;20521;-71
2023/01/10 01:30:23;;;;;;;210.77;78.80;;;;;;;2.92;100.00;99005.06;5114131;28;20019;-71
2023/01/10 01:32:48;;;;;;;227.43;81.43;;;;;;;3.26;100.00;98983.88;5114122;28;20016;-71
2023/01/10 01:35:15;;;;;;;209.82;81.20;;;;;;;3.41;100.00;98987.53;5114035;28;20039;-71
2023/01/10 01:37:42;;;;;;;186.30;74.15;;;;;;;3.43;100.00;98975.06;5115190;28;20106;-71
2023/01/10 01:40:18;;;;;;;209.27;77.55;;;;;;;3.42;100.00;98978.13;5114314;28;20024;-71
2023/01/10 01:42:45;;;;;;;200.35;74.82;;;;;;;3.48;100.00;98977.75;5114979;28;20512;-71
2023/01/10 01:45:13;;;;;;;189.38;77.15;;;;;;;3.70;100.00;98983.78;5114249;28;20482;-71
2023/01/10 01:48:00;;;;;;;193.45;74.22;;;;;;;3.78;100.00;98981.16;5112813;28;20023;-71
2023/01/10 01:50:43;;;;;;;195.18;76.82;;;;;;;3.90;100.00;98957.72;5113570;28;20582;-71
2023/01/10 01:53:17;;;;;;;187.73;71.47;;;;;;;3.81;99.02;98970.59;5114784;28;20019;-71
2023/01/10 01:55:45;;;;;;;186.15;70.53;;;;;;;3.75;99.56;98959.63;5112838;28;20076;-70
2023/01/10 01:58:17;;;;;;;191.35;71.28;;;;;;;3.64;99.53;98952.63;5113541;28;20023;-71
2023/01/10 02:00:43;;;;;;;205.45;76.65;;;;;;;3.42;100.00;98934.72;5111271;28;20027;-71
2023/01/10 02:03:10;;;;;;;187.93;70.53;;;;;;;3.63;100.00;98931.63;5113993;28;20635;-71
2023/01/10 02:05:37;;;;;;;201.40;73.35;;;;;;;3.56;100.00;98936.72;5113766;28;20088;-71
2023/01/10 02:08:03;;;;;;;213.27;75.57;;;;;;;2.98;100.00;98944.19;5113268;28;20019;-71
2023/01/10 02:10:36;;;;;;;212.63;74.72;;;;;;;3.43;100.00;98930.81;5113939;28;20019;-71
2023/01/10 02:13:04;;;;;;;196.63;72.93;;;;;;;3.59;100.00;98922.28;5109004;28;20030;-70
2023/01/10 02:15:30;;;;;;;226.52;73.25;;;;;;;3.61;100.00;98914.50;5104377;28;20031;-71
2023/01/10 02:17:58;;;;;;;193.05;76.38;;;;;;;3.54;100.00;98900.25;5114518;28;20076;-71
2023/01/10 02:20:25;;;;;;;196.55;72.60;;;;;;;3.46;100.00;98879.63;5113593;28;20460;-70
2023/01/10 02:22:59;;;;;;;197.27;72.65;;;;;;;3.70;100.00;98879.50;5114138;28;20023;-71
2023/01/10 02:26:02;;;;;;;200.75;75.75;;;;;;;3.90;100.00;98871.94;5114138;28;20106;-71
2023/01/10 02:29:00;;;;;;;198.45;74.43;;;;;;;3.92;99.21;98891.84;5114287;28;20031;-71
2023/01/10 02:32:02;;;;;;;212.13;79.63;;;;;;;3.79;100.00;98913.63;5111392;28;20462;-71
2023/01/10 02:34:40;;;;;;;212.63;76.07;;;;;;;3.77;99.41;98893.75;5112825;28;20038;-71
2023/01/10 02:37:17;;;;;;;207.68;75.15;;;;;;;3.74;99.50;98877.78;5114012;28;20517;-71
2023/01/10 02:39:56;;;;;;;198.95;72.03;;;;;;;3.86;99.33;98865.38;5114458;28;20046;-71
2023/01/10 02:42:31;;;;;;;205.07;75.38;;;;;;;4.11;97.83;98890.94;5109253;28;20040;-71
2023/01/10 02:45:11;;;;;;;214.38;75.93;;;;;;;3.99;97.97;98870.13;5112349;28;20490;-71
2023/01/10 02:47:38;;;;;;;189.23;72.88;;;;;;;3.85;97.95;98878.41;5112480;28;20034;-71
2023/01/10 02:50:25;;;;;;;198.63;74.57;;;;;;;3.95;98.27;98885.69;5112077;28;20101;-71
2023/01/10 02:52:51;;;;;;;193.80;75.85;;;;;;;3.55;98.97;98888.06;5093413;28;20020;-71
2023/01/10 02:55:17;;;;;;;214.23;78.05;;;;;;;3.11;100.00;98902.00;5091971;28;20119;-71
2023/01/10 02:57:55;;;;;;;203.95;75.80;;;;;;;3.38;100.00;98903.28;5091853;28;20052;-71
2023/01/10 03:00:54;;;;;;;210.50;78.43;;;;;;;3.74;100.00;98893.53;5098470;28;20020;-71
2023/01/10 03:03:55;;;;;;;255.60;82.78;;;;;;;3.23;100.00;98896.03;5113474;28;20445;-71
2023/01/10 03:06:44;;;;;;;260.05;91.10;;;;;;;3.08;100.00;98891.56;5076189;28;20047;-71
2023/01/10 03:09:20;;;;;;;243.35;86.82;;;;;;;3.24;100.00;98878.31;5111620;28;20036;-71
2023/01/10 03:11:49;;;;;;;249.95;84.20;;;;;;;3.24;100.00;98867.25;5112253;28;20387;-71
2023/01/10 03:14:21;;;;;;;234.35;82.22;;;;;;;3.32;100.00;98863.81;5112349;28;20529;-71
2023/01/10 03:16:55;;;;;;;208.23;76.78;;;;;;;3.53;100.00;98873.72;5113347;27;20027;-71
2023/01/10 03:19:23;;;;;;;221.07;81.43;;;;;;;3.50;100.00;98897.25;5112900;28;20054;-71
2023/01/10 03:21:55;;;;;;;234.48;79.45;;;;;;;3.68;100.00;98886.44;5111239;28;20032;-71
2023/01/10 03:24:31;;;;;;;221.80;79.55;;;;;;;3.43;100.00;98891.28;5111531;28;20062;-71
2023/01/10 03:27:08;;;;;;;235.55;78.85;;;;;;;3.20;100.00;98878.09;5111862;28;20032;-71
2023/01/10 03:29:44;;;;;;;230.15;81.32;;;;;;;2.93;100.00;98865.78;5112746;28;20034;-71
2023/01/10 03:32:12;;;;;;;234.82;82.30;;;;;;;3.21;100.00;98857.63;5111759;28;20043;-71
2023/01/10 03:34:38;;;;;;;241.88;85.30;;;;;;;3.13;100.00;98855.53;5111403;28;20031;-71
2023/01/10 03:37:38;;;;;;;250.95;82.13;;;;;;;3.33;100.00;98851.66;5112886;28;20531;-71
2023/01/10 03:40:22;;;;;;;220.98;80.88;;;;;;;3.55;100.00;98841.84;5112337;28;20123;-71
2023/01/10 03:46:31;;;;;;;226.73;79.80;;;;;;;2.93;100.00;98829.88;5112917;28;20043;-71
2023/01/10 03:48:58;;;;;;;210.80;77.68;;;;;;;3.19;100.00;98821.19;5111341;28;20047;-71
2023/01/10 03:51:26;;;;;;;223.32;80.60;;;;;;;3.47;100.00;98804.66;5109447;28;20028;-72
2023/01/10 03:53:51;;;;;;;204.48;79.03;;;;;;;3.59;100.00;98811.66;5092567;28;20449;-71
2023/01/10 03:56:17;;;;;;;207.10;78.57;;;;;;;3.71;100.00;98800.09;5091948;28;20108;-71
2023/01/10 03:58:42;;;;;;;209.73;80.28;;;;;;;3.81;100.00;98786.09;5108996;28;20077;-72
2023/01/10 04:01:08;;;;;;;183.10;74.57;;;;;;;3.92;100.00;98781.97;5110302;28;20031;-71
2023/01/10 04:03:33;;;;;;;202.63;75.70;;;;;;;3.84;99.72;98792.91;5112346;28;20031;-72
2023/01/10 04:05:59;;;;;;;182.85;77.28;;;;;;;3.67;99.79;98815.66;5112613;28;20055;-71
2023/01/10 04:08:25;;;;;;;211.20;80.80;;;;;;;3.12;100.00;98803.34;5112368;28;20031;-71
2023/01/10 04:10:50;;;;;;;235.13;84.50;;;;;;;2.85;100.00;98821.44;5108436;28;20383;-71
2023/01/10 04:13:16;;;;;;;221.25;86.78;;;;;;;2.91;100.00;98820.25;5110145;28;20028;-71
2023/01/10 04:15:41;;;;;;;233.48;91.65;;;;;;;2.59;100.00;98814.34;5112096;28;20028;-71
2023/01/10 04:18:07;;;;;;;239.85;89.18;;;;;;;2.51;100.00;98812.25;5112167;28;20028;-71
2023/01/10 04:20:32;;;;;;;249.32;88.95;;;;;;;2.62;100.00;98812.94;5110027;28;20038;-71
2023/01/10 04:22:57;;;;;;;253.52;92.80;;;;;;;2.91;100.00;98798.97;5111993;28;20486;-71
2023/01/10 04:25:23;;;;;;;260.88;95.50;;;;;;;3.20;100.00;98791.59;5111936;28;20046;-71
2023/01/10 04:27:49;;;;;;;239.05;92.68;;;;;;;3.25;100.00;98790.66;5111403;28;20028;-71
2023/01/10 04:30:16;;;;;;;237.93;87.47;;;;;;;3.08;100.00;98784.59;5110646;28;20042;-71
2023/01/10 04:32:42;;;;;;;269.35;94.47;;;;;;;2.89;100.00;98805.91;5111323;28;20027;-71
2023/01/10 04:35:08;;;;;;;256.25;92.45;;;;;;;2.85;100.00;98796.59;5110484;28;20024;-71
2023/01/10 04:37:33;;;;;;;255.48;99.22;;;;;;;2.65;100.00;98784.72;5111122;28;20027;-71
2023/01/10 04:39:59;;;;;;;252.68;96.15;;;;;;;2.66;100.00;98789.97;5110562;28;20545;-71
2023/01/10 04:42:24;;;;;;;244.68;89.85;;;;;;;3.01;100.00;98805.44;5109580;28;20117;-71
2023/01/10 04:44:50;;;;;;;254.18;95.15;;;;;;;3.04;100.00;98804.84;5111792;28;20515;-71
2023/01/10 04:47:15;;;;;;;242.95;94.97;;;;;;;2.94;100.00;98814.09;5111568;28;20019;-71
2023/01/10 04:49:40;;;;;;;251.80;88.03;;;;;;;2.97;100.00;98819.06;5111658;28;20402;-71
2023/01/10 04:52:06;;;;;;;238.57;87.43;;;;;;;3.18;100.00;98800.19;5110321;28;20406;-72
2023/01/10 04:54:31;;;;;;;240.38;84.32;;;;;;;3.07;100.00;98784.91;5111718;28;20027;-71
2023/01/10 04:56:57;;;;;;;238.63;87.15;;;;;;;3.07;100.00;98790.44;5114489;28;20131;-72
2023/01/10 04:59:22;;;;;;;264.10;87.45;;;;;;;2.64;100.00;98772.84;5116039;28;20050;-71
2023/01/10 05:01:48;;;;;;;252.95;86.88;;;;;;;3.11;100.00;98763.81;5114004;28;20482;-71
2023/01/10 05:04:14;;;;;;;247.85;100.53;;;;;;;3.13;100.00;98761.56;5115857;28;20028;-71
2023/01/10 05:06:39;;;;;;;264.25;87.13;;;;;;;3.15;100.00;98775.94;5106951;28;20063;-71
2023/01/10 05:09:06;;;;;;;250.48;94.57;;;;;;;2.94;100.00;98758.84;5114010;28;20092;-71
2023/01/10 05:11:31;;;;;;;235.57;86.50;;;;;;;2.79;100.00;98765.47;5115010;28;20111;-71
2023/01/10 05:13:57;;;;;;;288.13;104.00;;;;;;;2.91;100.00;98776.88;5115712;28;20094;-71
2023/01/10 05:16:24;;;;;;;299.88;102.57;;;;;;;2.46;100.00;98757.13;5114514;27;20055;-71
2023/01/10 05:18:49;;;;;;;280.73;97.78;;;;;;;2.86;100.00;98768.66;5114271;28;20036;-71
2023/01/10 05:21:16;;;;;;;334.23;107.00;;;;;;;2.59;100.00;98742.56;5112649;28;20051;-73
2023/01/10 05:23:42;;;;;;;292.85;95.15;;;;;;;2.81;100.00;98765.97;5114146;28;20106;-72
2023/01/10 05:26:14;;;;;;;311.33;102.50;;;;;;;2.71;100.00;98741.28;5114664;27;20408;-71
2023/01/10 05:28:40;;;;;;;311.10;97.88;;;;;;;2.83;100.00;98744.41;5114122;28;20062;-72
2023/01/10 05:31:07;;;;;;;303.88;97.68;;;;;;;3.07;100.00;98748.97;5113404;27;20035;-72
2023/01/10 05:33:33;;;;;;;313.85;97.93;;;;;;;3.12;100.00;98743.34;5114060;28;20023;-71
2023/01/10 05:36:06;;;;;;;301.40;102.45;;;;;;;3.01;100.00;98742.72;5114160;28;20990;-71
2023/01/10 05:38:32;;;;;;;303.77;105.68;;;;;;;2.91;100.00;98735.44;5115283;28;20398;-69
2023/01/10 05:40:59;;;;;;;340.77;109.55;;;;;;;2.72;100.00;98729.09;5105060;28;20024;-69
2023/01/10 05:43:25;;;;;;;323.80;109.65;;;;;;;2.54;100.00;98737.13;5109774;28;20172;-71
2023/01/10 05:45:51;;;;;;;332.75;108.68;;;;;;;2.64;100.00;98736.13;5113384;28;20031;-71
2023/01/10 05:48:18;;;;;;;300.60;98.28;;;;;;;2.63;100.00;98749.13;5114833;28;20043;-68
2023/01/10 05:50:44;;;;;;;319.75;96.65;;;;;;;2.47;100.00;98753.22;5103832;27;20023;-69
2023/01/10 05:53:09;;;;;;;301.58;100.80;;;;;;;2.48;100.00;98766.75;5112234;28;20483;-69
2023/01/10 05:55:35;;;;;;;336.38;112.03;;;;;;;2.52;100.00;98781.59;5109537;28;20032;-68
2023/01/10 05:58:00;;;;;;;304.88;95.68;;;;;;;2.52;100.00;98786.28;5107330;28;20093;-68
2023/01/10 06:00:26;;;;;;;295.45;97.75;;;;;;;2.52;100.00;98769.72;5095169;28;20034;-69
2023/01/10 06:02:56;;;;;;;309.70;104.50;;;;;;;2.57;100.00;98758.59;5110389;28;20036;-69
2023/01/10 06:05:22;;;;;;;312.80;105.82;;;;;;;2.46;100.00;98748.84;5110901;28;20053;-70
2023/01/10 06:07:47;;;;;;;296.20;100.75;;;;;;;2.30;100.00;98735.25;5108313;28;20050;-69
2023/01/10 06:10:13;;;;;;;310.05;99.93;;;;;;;2.36;100.00;98749.81;5111473;28;20031;-69
2023/01/10 06:12:39;;;;;;;314.58;104.07;;;;;;;2.41;100.00;98763.53;5110753;28;21010;-69
2023/01/10 06:15:06;;;;;;;349.48;103.32;;;;;;;2.55;100.00;98773.81;5106984;28;20076;-70
2023/01/10 06:17:32;;;;;;;336.63;110.97;;;;;;;2.60;100.00;98771.81;5104621;28;20039;-70
2023/01/10 06:19:57;;;;;;;374.58;115.95;;;;;;;2.64;100.00;98770.09;5108018;27;20631;-70
2023/01/10 06:22:23;;;;;;;378.50;119.70;;;;;;;2.49;100.00;98778.59;5102613;28;20059;-70
2023/01/10 06:24:48;;;;;;;380.95;114.35;;;;;;;2.65;100.00;98769.00;5110315;28;20031;-69
2023/01/10 06:27:13;;;;;;;378.55;118.43;;;;;;;2.59;100.00;98758.28;5109945;28;20024;-70
2023/01/10 06:29:39;;;;;;;397.15;126.78;;;;;;;2.49;100.00;98748.22;5109607;28;20027;-69
2023/01/10 06:32:04;;;;;;;424.60;130.73;;;;;;;2.57;100.00;98753.09;5111024;28;20428;-71
2023/01/10 06:34:30;;;;;;;439.10;125.68;;;;;;;2.62;100.00;98758.53;5111607;28;20039;-68
2023/01/10 06:36:55;;;;;;;419.60;136.75;;;;;;;2.51;100.00;98757.03;5110815;27;20034;-70
2023/01/10 06:39:21;;;;;;;409.98;138.10;;;;;;;2.37;100.00;98757.78;5108197;28;20035;-70
2023/01/10 06:41:46;;;;;;;414.45;139.32;;;;;;;2.45;100.00;98758.25;5109853;28;20089;-71
2023/01/10 06:44:12;;;;;;;406.88;129.30;;;;;;;2.42;100.00;98756.88;5111106;28;20478;-73
2023/01/10 06:46:38;;;;;;;442.17;134.50;;;;;;;2.46;100.00;98755.16;5099644;28;20430;-74
2023/01/10 06:49:04;;;;;;;398.38;128.30;;;;;;;2.45;100.00;98749.97;5104486;28;20468;-71
2023/01/10 06:51:29;;;;;;;434.20;141.68;;;;;;;2.46;100.00;98755.16;5106671;28;20408;-71
2023/01/10 06:53:54;;;;;;;403.85;128.48;;;;;;;2.48;100.00;98752.13;5108305;28;20036;-72
2023/01/10 06:56:20;;;;;;;419.95;135.15;;;;;;;2.45;100.00;98747.19;5104260;28;20090;-71
2023/01/10 06:58:49;;;;;;;447.48;141.43;;;;;;;2.34;100.00;98758.38;5106506;28;20039;-70
2023/01/10 07:01:17;;;;;;;402.30;133.50;;;;;;;2.52;100.00;98753.97;5101960;28;20040;-71
2023/01/10 07:03:42;;;;;;;418.90;134.95;;;;;;;2.39;100.00;98744.50;5102558;28;20440;-69
2023/01/10 07:06:11;;;;;;;428.55;139.05;;;;;;;2.45;100.00;98738.91;5111100;28;20046;-73
2023/01/10 07:08:39;;;;;;;428.15;144.45;;;;;;;2.46;100.00;98743.31;5107909;28;20078;-73
2023/01/10 07:11:05;;;;;;;411.35;132.55;;;;;;;2.58;100.00;98742.84;5111581;28;20038;-73
2023/01/10 07:13:30;;;;;;;389.10;128.88;;;;;;;2.58;100.00;98740.91;5105853;28;20023;-72
2023/01/10 07:16:08;;;;;;;369.92;125.43;;;;;;;2.48;100.00;98732.78;5100236;28;20032;-73
2023/01/10 07:18:35;;;;;;;376.77;129.73;;;;;;;2.59;100.00;98737.03;5108139;28;20098;-71
2023/01/10 07:21:01;;;;;;;424.83;145.68;;;;;;;2.50;100.00;98713.97;5102449;28;20042;-73
2023/01/10 07:23:26;;;;;;;410.52;146.20;;;;;;;2.41;100.00;98713.00;5106972;28;20043;-74
2023/01/10 07:25:52;;;;;;;400.05;139.27;;;;;;;2.55;100.00;98700.13;5103307;28;20024;-74
2023/01/10 07:28:17;;;;;;;432.65;147.73;;;;;;;2.40;100.00;98701.16;5107338;27;20081;-74
2023/01/10 07:30:43;;;;;;;386.70;132.73;;;;;;;2.63;100.00;98695.84;5109771;28;20027;-76
2023/01/10 07:33:09;;;;;;;370.55;130.70;;;;;;;2.44;100.00;98671.03;5105653;28;20038;-74
2023/01/10 07:35:34;;;;;;;380.92;131.07;;;;;;;2.59;100.00;98687.34;5096334;28;20129;-73
2023/01/10 07:38:02;;;;;;;377.88;126.13;;;;;;;2.63;100.00;98684.81;5093351;28;20444;-72
2023/01/10 07:40:28;;;;;;;363.77;117.32;;;;;;;2.65;100.00;98686.16;5097352;28;20028;-75
2023/01/10 07:43:00;;;;;;;356.77;119.38;;;;;;;2.76;100.00;98688.72;5104588;28;20509;-73
2023/01/10 07:45:26;;;;;;;375.77;121.90;;;;;;;2.76;100.00;98669.38;5101513;28;20063;-72
2023/01/10 07:47:59;;;;;;;367.02;122.72;;;;;;;2.84;100.00;98676.97;5102762;28;20533;-73
2023/01/10 07:50:27;;;;;;;349.08;120.10;;;;;;;3.01;100.00;98678.34;5108587;27;20047;-73
2023/01/10 07:52:53;;;;;;;330.33;114.60;;;;;;;3.06;100.00;98673.53;5109888;28;20482;-71
2023/01/10 07:55:18;;;;;;;358.02;123.63;;;;;;;3.02;100.00;98685.53;5106099;28;20019;-72
2023/01/10 07:57:44;;;;;;;346.80;119.05;;;;;;;3.15;100.00;98659.84;5106681;28;20043;-70
2023/01/10 08:00:10;;;;;;;361.70;117.40;;;;;;;3.00;100.00;98665.66;5108406;28;20031;-73
2023/01/10 08:02:35;;;;;;;364.88;121.10;;;;;;;2.92;100.00;98662.47;5104302;28;20035;-70
2023/01/10 08:05:01;;;;;;;366.65;118.20;;;;;;;2.67;100.00;98653.53;5093966;28;20478;-69
2023/01/10 08:07:31;;;;;;;355.58;119.20;;;;;;;2.59;100.00;98654.19;5104251;28;20028;-72
2023/01/10 08:09:57;;;;;;;365.83;122.07;;;;;;;2.65;100.00;98650.25;5108811;28;20032;-77
2023/01/10 08:12:23;;;;;;;344.63;116.93;;;;;;;2.61;100.00;98653.91;5102337;28;20024;-71
2023/01/10 08:14:52;;;;;;;397.05;123.22;;;;;;;2.57;100.00;98658.38;5099987;28;20028;-75
2023/01/10 08:17:18;;;;;;;391.52;118.18;;;;;;;2.50;100.00;98656.84;5102032;28;20028;-74
2023/01/10 08:19:44;;;;;;;367.67;119.45;;;;;;;2.67;100.00;98667.31;5108087;28;20487;-75
2023/01/10 08:22:11;;;;;;;384.25;118.88;;;;;;;2.56;100.00;98638.25;5108941;28;20475;-74
2023/01/10 08:24:36;;;;;;;381.05;121.55;;;;;;;2.58;100.00;98635.16;5110786;28;20035;-78
2023/01/10 08:27:02;;;;;;;368.10;119.25;;;;;;;2.79;100.00;98661.31;5108043;28;20479;-72
2023/01/10 08:29:28;;;;;;;377.73;122.03;;;;;;;2.86;100.00;98655.41;5118953;27;20035;-74
2023/01/10 08:31:54;;;;;;;364.73;109.82;;;;;;;2.95;100.00;98656.34;5119781;27;20051;-75
2023/01/10 08:34:19;;;;;;;342.40;109.18;;;;;;;3.00;100.00;98655.44;5098759;28;20127;-75
2023/01/10 08:36:48;;;;;;;346.83;109.68;;;;;;;2.91;100.00;98649.78;5094014;28;20045;-76
2023/01/10 08:39:14;;;;;;;355.27;120.72;;;;;;;2.99;100.00;98644.66;5099649;28;20027;-75
2023/01/10 08:41:40;;;;;;;324.23;107.68;;;;;;;2.95;100.00;98628.72;5094886;28;20059;-76
2023/01/10 08:44:05;;;;;;;353.40;113.63;;;;;;;3.08;100.00;98648.38;5096691;28;20111;-75
2023/01/10 08:46:31;;;;;;;344.20;113.70;;;;;;;3.18;100.00;98623.31;5093871;28;20031;-76
2023/01/10 08:48:56;;;;;;;324.33;101.95;;;;;;;2.98;100.00;98618.16;5109214;28;20084;-74
2023/01/10 08:51:22;;;;;;;340.25;115.68;;;;;;;3.14;100.00;98636.13;5100571;28;20510;-76
2023/01/10 08:53:47;;;;;;;301.48;103.93;;;;;;;3.06;100.00;98601.69;5107591;28;20095;-74
2023/01/10 08:56:13;;;;;;;300.08;102.75;;;;;;;3.06;100.00;98617.47;5098657;28;20050;-75
2023/01/10 08:58:38;;;;;;;328.50;111.22;;;;;;;3.16;100.00;98628.31;5096549;28;20444;-74
2023/01/10 09:01:07;;;;;;;280.90;97.80;;;;;;;3.26;100.00;98615.41;5095986;28;20118;-75
2023/01/10 09:03:33;;;;;;;258.63;93.27;;;;;;;3.13;100.00;98611.53;5102503;28;20445;-74
2023/01/10 09:06:00;;;;;;;373.17;138.07;;;;;;;3.30;100.00;98606.19;5105947;28;20043;-75
2023/01/10 09:08:25;;;;;;;335.55;124.88;;;;;;;3.43;100.00;98582.44;5104900;28;20024;-74
2023/01/10 09:10:51;;;;;;;254.10;96.60;;;;;;;3.57;100.00;98590.72;5106456;28;20555;-73
2023/01/10 09:13:16;;;;;;;276.75;108.60;;;;;;;3.59;100.00;98588.47;5107854;28;20137;-74
2023/01/10 09:15:42;;;;;;;221.18;81.15;;;;;;;3.46;100.00;98568.00;5110516;28;20092;-74
2023/01/10 09:18:10;;;;;;;222.00;83.60;;;;;;;3.55;100.00;98578.34;5110185;28;20031;-74
2023/01/10 09:20:39;;;;;;;212.10;84.32;;;;;;;3.73;100.00;98568.25;5105703;28;20135;-74
2023/01/10 09:23:07;;;;;;;218.65;82.97;;;;;;;3.49;100.00;98564.59;5108803;28;20466;-74
2023/01/10 09:25:34;;;;;;;220.77;86.63;;;;;;;3.58;100.00;98561.13;5109292;28;20461;-74
2023/01/10 09:28:01;;;;;;;208.98;87.47;;;;;;;3.70;100.00;98544.78;5095419;28;20028;-74
2023/01/10 09:30:28;;;;;;;192.38;79.53;;;;;;;3.72;100.00;98545.28;5108979;28;20028;-74
2023/01/10 09:32:55;;;;;;;219.30;86.70;;;;;;;3.50;100.00;98544.16;5106886;28;20498;-79
2023/01/10 09:35:21;;;;;;;204.80;81.70;;;;;;;3.29;100.00;98532.69;5103139;28;20446;-75
2023/01/10 09:37:46;;;;;;;213.50;86.18;;;;;;;3.33;100.00;98532.91;5108195;28;20027;-74
2023/01/10 09:40:18;;;;;;;198.93;82.32;;;;;;;3.44;100.00;98527.94;5108569;28;20063;-73
2023/01/10 09:42:46;;;;;;;191.68;80.97;;;;;;;3.41;100.00;98529.41;5112480;28;20026;-73
2023/01/10 09:45:18;;;;;;;218.75;98.68;;;;;;;3.51;100.00;98515.38;5109477;27;20592;-73
2023/01/10 09:48:04;;;;;;;168.05;71.68;;;;;;;3.31;100.00;98504.75;5110706;28;20023;-73
2023/01/10 09:50:44;;;;;;;184.93;77.40;;;;;;;3.48;100.00;98493.84;5104663;28;20464;-73
2023/01/10 09:53:21;;;;;;;;;;;;;;;3.40;100.00;98491.00;5101181;28;20530;-76
2023/01/10 09:55:58;;;;;;;192.18;71.22;;;;;;;3.53;100.00;98490.16;5094118;28;19915;-74
2023/01/10 09:58:27;;;;;;;201.32;84.45;;;;;;;3.67;100.00;98497.56;5094802;28;20125;-73
2023/01/10 10:00:57;;;;;;;209.35;94.10;;;;;;;3.76;100.00;98491.00;5091993;28;20032;-74
2023/01/10 10:03:29;;;;;;;;;;;;;;;3.63;100.00;98480.81;5093734;28;20032;-75
2023/01/10 10:05:55;;;;;;;186.52;75.57;;;;;;;3.66;100.00;98485.72;5104794;28;20018;-74
2023/01/10 10:08:20;;;;;;;183.52;71.32;;;;;;;3.76;100.00;98481.88;5106269;28;20023;-74
2023/01/10 10:11:24;;;;;;;174.50;68.43;;;;;;;3.40;100.00;98457.84;5099934;28;20069;-74
2023/01/10 10:14:05;;;;;;;211.30;90.65;;;;;;;3.62;100.00;98470.84;5042389;28;20123;-73
2023/01/10 10:16:42;;;;;;;188.13;78.80;;;;;;;3.70;100.00;98459.06;5097835;28;20024;-72
2023/01/10 10:19:47;;;;;;;204.93;85.32;;;;;;;3.58;100.00;98445.78;5096795;28;20162;-73
2023/01/10 10:22:20;;;;;;;199.07;83.80;;;;;;;3.75;100.00;98461.72;5094818;28;20096;-75
2023/01/10 10:25:13;;;;;;;196.77;77.43;;;;;;;3.87;100.00;98452.81;5093827;28;20243;-75
2023/01/10 10:27:44;;;;;;;180.60;75.45;;;;;;;3.96;100.00;98455.66;5099058;28;20567;-78
2023/01/10 10:30:36;;;;;;;176.90;74.55;;;;;;;3.76;100.00;98435.69;5104352;28;20043;-74
2023/01/10 10:33:16;;;;;;;171.50;65.25;;;;;;;3.82;100.00;98430.00;5107763;28;20023;-74
2023/01/10 10:35:49;;;;;;;174.25;69.43;;;;;;;3.86;100.00;98418.00;5109308;28;20035;-74
2023/01/10 10:38:28;;;;;;;169.57;69.55;;;;;;;3.98;100.00;98400.81;5109168;28;20062;-76
2023/01/10 10:40:57;;;;;;;155.27;64.72;;;;;;;4.00;100.00;98406.84;5108094;28;20103;-79
2023/01/10 10:43:30;;;;;;;161.95;72.32;;;;;;;3.86;100.00;98400.56;5105788;28;20402;-70
2023/01/10 10:46:08;;;;;;;165.38;70.80;;;;;;;3.55;100.00;98385.56;5104768;28;20024;-73
2023/01/10 10:49:10;;;;;;;158.10;65.00;;;;;;;3.57;100.00;98376.97;5106307;28;20481;-71
2023/01/10 10:51:46;;;;;;;176.70;70.50;;;;;;;3.58;100.00;98371.13;5108697;28;20521;-70
2023/01/10 10:54:13;;;;;;;162.70;68.80;;;;;;;3.77;100.00;98365.38;5109767;27;20030;-71
2023/01/10 10:56:40;;;;;;;169.30;66.57;;;;;;;3.78;100.00;98367.03;5108320;28;20332;-73
2023/01/10 10:59:05;;;;;;;162.13;69.10;;;;;;;3.99;100.00;98371.19;5107757;28;20116;-76
2023/01/10 11:01:31;;;;;;;171.05;72.25;;;;;;;3.98;100.00;98372.31;5110640;28;20449;-73
2023/01/10 11:04:11;;;;;;;156.95;64.88;;;;;;;3.98;100.00;98364.84;5095568;28;20054;-72
2023/01/10 11:06:39;;;;;;;165.35;69.97;;;;;;;4.10;100.00;98372.53;5102064;28;20115;-75
2023/01/10 11:09:05;;;;;;;160.05;69.82;;;;;;;4.21;100.00;98375.84;5095336;28;20100;-72
2023/01/10 11:11:43;;;;;;;159.98;68.15;;;;;;;4.33;100.00;98367.75;5098552;28;20027;-78
2023/01/10 11:14:09;;;;;;;166.43;67.68;;;;;;;4.27;100.00;98332.22;5104418;28;20023;-76
2023/01/10 11:16:40;;;;;;;154.90;67.25;;;;;;;4.22;100.00;98302.72;5099756;28;20084;-73
2023/01/10 11:19:17;;;;;;;173.98;80.47;;;;;;;4.19;100.00;98295.06;5104006;28;20046;-74
2023/01/10 11:22:00;;;;;;;182.82;86.72;;;;;;;4.26;100.00;98287.13;5102719;28;20096;-73
2023/01/10 11:24:33;;;;;;;164.63;72.15;;;;;;;4.50;100.00;98292.22;5096568;28;20483;-73
2023/01/10 11:27:03;;;;;;;140.82;65.50;;;;;;;4.61;100.00;98283.59;5093929;28;20549;-74
2023/01/10 11:29:44;;;;;;;180.70;87.28;;;;;;;4.73;100.00;98289.31;5091311;28;20080;-74